Time;durP1;ratioP1;P1;durP2;ratioP2;P2;SDS_P1;SDS_P2;PMS_P1;PMS_P2;Temp;Humidity;BMP_temperature;BMP_pressure;BME280_temperature;BME280_humidity;BME280_pressure;Samples;Min_cycle;Max_cycle;Signal;HPM_P1;HPM_P2
2021/12/12 00:00:44;;;;;;;33.33;20.27;;;;;;;1.89;100.00;101981.53;1041125;28;20277;-75
2021/12/12 00:01:33;;;;;;;32.33;18.98;;;;;;;1.85;100.00;101985.38;1046603;28;20340;-76
2021/12/12 00:02:19;;;;;;;32.45;19.83;;;;;;;1.82;100.00;101988.28;1045412;28;20264;-76
2021/12/12 00:02:59;;;;;;;36.92;21.70;;;;;;;1.77;100.00;101982.59;1049344;28;20861;-75
2021/12/12 00:03:41;;;;;;;33.58;20.52;;;;;;;1.75;100.00;101984.50;1050635;28;20281;-75
2021/12/12 00:04:16;;;;;;;33.83;22.63;;;;;;;1.74;100.00;101985.47;1050557;28;20301;-75
2021/12/12 00:04:48;;;;;;;38.75;22.08;;;;;;;1.69;100.00;101985.88;1046541;28;20279;-75
2021/12/12 00:05:21;;;;;;;35.55;22.58;;;;;;;1.68;100.00;101988.63;1042891;28;20325;-75
2021/12/12 00:05:55;;;;;;;38.85;22.40;;;;;;;1.68;100.00;101983.38;1045825;28;20780;-78
2021/12/12 00:06:31;;;;;;;39.25;23.70;;;;;;;1.69;100.00;101983.25;1043743;28;20288;-79
2021/12/12 00:07:07;;;;;;;39.00;23.70;;;;;;;1.70;100.00;101981.44;1043888;28;20280;-79
2021/12/12 00:07:39;;;;;;;35.65;23.52;;;;;;;1.66;100.00;101985.31;1046220;28;20275;-79
2021/12/12 00:08:11;;;;;;;39.50;26.50;;;;;;;1.71;100.00;101977.88;1048462;28;20285;-78
2021/12/12 00:08:45;;;;;;;47.95;25.58;;;;;;;1.70;100.00;101986.69;1049040;28;20286;-76
2021/12/12 00:09:21;;;;;;;42.63;25.83;;;;;;;1.70;100.00;101976.19;1046251;28;20286;-75
2021/12/12 00:09:56;;;;;;;42.10;25.33;;;;;;;1.70;100.00;101982.28;1048066;28;20291;-77
2021/12/12 00:10:31;;;;;;;41.53;24.30;;;;;;;1.66;100.00;101985.31;1044560;28;20279;-80
2021/12/12 00:11:07;;;;;;;42.92;25.00;;;;;;;1.69;100.00;101979.78;1049102;28;20684;-78
2021/12/12 00:11:39;;;;;;;43.15;27.00;;;;;;;1.70;100.00;101976.19;1046425;28;20279;-80
2021/12/12 00:12:18;;;;;;;40.88;25.65;;;;;;;1.73;100.00;101983.81;1044157;28;20623;-79
2021/12/12 00:12:53;;;;;;;39.13;25.55;;;;;;;1.71;100.00;101981.31;1042307;28;20284;-80
2021/12/12 00:13:33;;;;;;;36.40;27.50;;;;;;;1.70;100.00;101981.44;1038428;28;20654;-80
2021/12/12 00:14:18;;;;;;;42.80;27.13;;;;;;;1.70;100.00;101992.78;1044703;28;20291;-80
2021/12/12 00:14:51;;;;;;;45.47;25.05;;;;;;;1.68;100.00;101978.13;1050549;28;20644;-80
2021/12/12 00:15:23;;;;;;;52.70;29.52;;;;;;;1.68;100.00;101983.38;1050436;28;20381;-80
2021/12/12 00:15:55;;;;;;;51.65;27.60;;;;;;;1.66;100.00;101974.81;1051066;28;20293;-79
2021/12/12 00:16:27;;;;;;;53.25;28.90;;;;;;;1.64;100.00;101981.94;1050725;28;20301;-79
2021/12/12 00:16:59;;;;;;;46.85;28.60;;;;;;;1.65;100.00;101979.22;1047142;28;20365;-80
2021/12/12 00:17:31;;;;;;;54.47;27.55;;;;;;;1.72;100.00;101976.91;1047018;28;20302;-79
2021/12/12 00:18:05;;;;;;;51.33;27.48;;;;;;;1.71;100.00;101983.13;1040252;28;20284;-80
2021/12/12 00:18:37;;;;;;;36.78;28.67;;;;;;;1.72;100.00;101976.91;1038746;28;20276;-79
2021/12/12 00:19:09;;;;;;;45.95;28.27;;;;;;;1.72;100.00;101976.91;1039532;28;20286;-79
2021/12/12 00:19:41;;;;;;;51.40;29.88;;;;;;;1.74;100.00;101977.59;1036989;28;20281;-79
2021/12/12 00:20:14;;;;;;;52.58;29.42;;;;;;;1.73;100.00;101973.31;1043261;28;20279;-79
2021/12/12 00:20:47;;;;;;;51.15;29.85;;;;;;;1.77;100.00;101966.81;1047928;28;20286;-80
2021/12/12 00:21:20;;;;;;;60.72;29.13;;;;;;;1.76;100.00;101971.25;1047565;28;20282;-79
2021/12/12 00:21:54;;;;;;;47.33;30.65;;;;;;;1.78;100.00;101965.88;1050756;28;20800;-80
2021/12/12 00:22:27;;;;;;;44.25;30.33;;;;;;;1.75;100.00;101964.34;1050673;28;20283;-79
2021/12/12 00:22:59;;;;;;;48.92;30.23;;;;;;;1.73;100.00;101970.69;1051376;28;20274;-79
2021/12/12 00:23:31;;;;;;;54.90;29.13;;;;;;;1.73;100.00;101970.69;1050409;28;20286;-80
2021/12/12 00:24:05;;;;;;;55.67;30.05;;;;;;;1.72;100.00;101963.78;1046691;28;20824;-80
2021/12/12 00:24:38;;;;;;;51.95;30.48;;;;;;;1.72;100.00;101971.66;1046932;28;20279;-80
2021/12/12 00:25:09;;;;;;;52.53;30.92;;;;;;;1.77;100.00;101964.19;1041252;28;20277;-80
2021/12/12 00:25:45;;;;;;;50.65;29.60;;;;;;;1.79;100.00;101967.53;1047550;28;20279;-79
2021/12/12 00:26:17;;;;;;;52.13;29.15;;;;;;;1.79;100.00;101959.66;1050175;28;20278;-79
2021/12/12 00:26:50;;;;;;;49.67;30.80;;;;;;;1.82;100.00;101970.72;1051383;28;20369;-79
2021/12/12 00:27:22;;;;;;;53.08;28.13;;;;;;;1.82;100.00;101969.88;1051197;28;20289;-79
2021/12/12 00:27:54;;;;;;;47.78;29.73;;;;;;;1.81;100.00;101962.97;1050932;28;20298;-79
2021/12/12 00:28:27;;;;;;;48.90;29.17;;;;;;;1.77;100.00;101966.81;1047037;28;20275;-79
2021/12/12 00:28:58;;;;;;;49.47;29.52;;;;;;;1.82;100.00;101964.63;1042263;28;20310;-79
2021/12/12 00:29:30;;;;;;;48.55;30.02;;;;;;;1.83;100.00;101966.28;1039052;28;21043;-79
2021/12/12 00:30:07;;;;;;;50.28;29.98;;;;;;;1.78;100.00;101966.69;1039120;28;20805;-79
2021/12/12 00:30:38;;;;;;;56.05;29.75;;;;;;;1.77;100.00;101966.81;1041098;28;20272;-80
2021/12/12 00:31:14;;;;;;;59.25;30.55;;;;;;;1.81;100.00;101960.34;1039419;28;20612;-76
2021/12/12 00:31:48;;;;;;;52.83;29.50;;;;;;;1.80;100.00;101964.75;1043948;28;20272;-76
2021/12/12 00:32:23;;;;;;;49.63;31.10;;;;;;;1.85;100.00;101961.75;1044008;28;20276;-76
2021/12/12 00:32:55;;;;;;;47.72;31.17;;;;;;;1.85;100.00;101959.94;1046034;28;20283;-75
2021/12/12 00:33:27;;;;;;;50.15;30.85;;;;;;;1.92;100.00;101956.78;1050647;28;20768;-75
2021/12/12 00:34:00;;;;;;;55.92;29.10;;;;;;;1.86;100.00;101961.59;1047744;28;20279;-75
2021/12/12 00:34:35;;;;;;;55.03;29.92;;;;;;;1.86;100.00;101956.34;1046690;28;20271;-75
2021/12/12 00:35:11;;;;;;;56.85;29.65;;;;;;;1.95;100.00;101957.38;1042162;28;20284;-76
2021/12/12 00:35:48;;;;;;;50.22;31.05;;;;;;;1.92;100.00;101960.28;1044972;28;20303;-78
2021/12/12 00:36:21;;;;;;;50.97;30.15;;;;;;;1.89;100.00;101952.63;1045291;28;20299;-80
2021/12/12 00:36:53;;;;;;;60.00;30.70;;;;;;;1.90;100.00;101964.78;1048865;28;20284;-80
2021/12/12 00:37:25;;;;;;;51.42;31.50;;;;;;;1.88;100.00;101956.22;1047922;28;20274;-80
2021/12/12 00:38:01;;;;;;;51.95;31.77;;;;;;;1.87;100.00;101946.69;1047383;28;20298;-80
2021/12/12 00:38:34;;;;;;;54.95;29.75;;;;;;;1.91;100.00;101955.13;1050596;28;20283;-79
2021/12/12 00:39:15;;;;;;;51.90;31.00;;;;;;;1.85;100.00;101948.59;1047861;28;20316;-79
2021/12/12 00:39:51;;;;;;;;;;;;;;;1.89;100.00;101954.44;1047226;28;20282;-79
2021/12/12 00:40:33;;;;;;;52.22;25.50;;;;;;;1.91;100.00;101950.69;1046757;28;19920;-79
2021/12/12 00:41:08;;;;;;;46.15;23.45;;;;;;;1.89;100.00;101950.00;1042432;28;20296;-79
2021/12/12 00:41:53;;;;;;;45.97;27.42;;;;;;;1.89;100.00;101951.78;1041512;28;20280;-80
2021/12/12 00:42:28;;;;;;;38.88;24.80;;;;;;;1.90;100.00;101951.66;1037208;28;20276;-80
2021/12/12 00:43:07;;;;;;;53.90;27.13;;;;;;;1.89;100.00;101955.25;1038752;28;20280;-79
2021/12/12 00:43:47;;;;;;;41.13;24.58;;;;;;;1.94;100.00;101950.47;1041297;28;20287;-80
2021/12/12 00:44:20;;;;;;;42.10;24.33;;;;;;;1.91;100.00;101952.50;1041494;28;20300;-79
2021/12/12 00:44:54;;;;;;;39.92;23.23;;;;;;;1.89;100.00;101950.00;1041258;28;20291;-80
2021/12/12 00:45:26;;;;;;;45.42;24.48;;;;;;;1.92;100.00;101954.16;1040098;28;20277;-80
2021/12/12 00:46:00;;;;;;;39.53;23.52;;;;;;;1.91;100.00;101948.06;1043552;28;20778;-79
2021/12/12 00:46:32;;;;;;;42.17;23.20;;;;;;;1.89;100.00;101955.25;1042662;28;20286;-80
2021/12/12 00:47:07;;;;;;;60.33;24.73;;;;;;;1.90;100.00;101945.56;1036174;28;20667;-79
2021/12/12 00:47:40;;;;;;;39.50;24.60;;;;;;;1.93;100.00;101946.16;1039827;28;20324;-80
2021/12/12 00:48:12;;;;;;;43.53;24.40;;;;;;;1.94;100.00;101947.00;1039402;28;20332;-79
2021/12/12 00:48:45;;;;;;;40.65;23.60;;;;;;;1.95;100.00;101940.78;1042814;28;20276;-80
2021/12/12 00:49:17;;;;;;;51.30;25.20;;;;;;;1.92;100.00;101947.13;1042295;28;20288;-80
2021/12/12 00:49:49;;;;;;;50.78;24.60;;;;;;;1.94;100.00;101939.94;1038980;28;20659;-79
2021/12/12 00:50:28;;;;;;;41.92;24.55;;;;;;;1.96;100.00;101945.06;1043664;28;20279;-79
2021/12/12 00:51:02;;;;;;;47.28;24.45;;;;;;;1.96;100.00;101939.81;1040925;28;20801;-80
2021/12/12 00:51:37;;;;;;;49.67;25.98;;;;;;;1.95;100.00;101938.97;1044006;28;20294;-79
2021/12/12 00:52:12;;;;;;;47.50;23.95;;;;;;;1.94;100.00;101939.94;1039655;28;20365;-80
2021/12/12 00:52:45;;;;;;;47.75;25.05;;;;;;;1.95;100.00;101938.97;1037016;28;20273;-80
2021/12/12 00:53:20;;;;;;;36.03;23.70;;;;;;;1.96;100.00;101938.03;1035210;28;20277;-80
2021/12/12 00:53:52;;;;;;;43.40;24.02;;;;;;;1.97;100.00;101937.06;1032980;28;20289;-80
2021/12/12 00:54:30;;;;;;;39.92;26.25;;;;;;;1.98;100.00;101938.72;1036332;28;20285;-80
2021/12/12 00:55:03;;;;;;;44.95;23.90;;;;;;;2.01;100.00;101933.19;1037870;28;20265;-80
2021/12/12 00:55:37;;;;;;;39.63;22.73;;;;;;;2.01;100.00;101938.44;1041076;28;20284;-80
2021/12/12 00:56:09;;;;;;;49.33;25.75;;;;;;;1.99;100.00;101936.91;1043806;28;20279;-80
2021/12/12 00:56:42;;;;;;;41.55;25.33;;;;;;;1.99;100.00;101935.13;1044287;28;20290;-79
2021/12/12 00:57:18;;;;;;;51.03;25.10;;;;;;;1.98;100.00;101936.09;1040075;28;20272;-80
2021/12/12 00:57:53;;;;;;;44.40;22.67;;;;;;;2.02;100.00;101934.84;1035484;28;20292;-79
2021/12/12 00:58:25;;;;;;;35.47;22.83;;;;;;;2.00;100.00;101942.03;1035612;28;20287;-80
2021/12/12 00:58:57;;;;;;;49.10;24.45;;;;;;;1.98;100.00;101943.13;1038916;28;20295;-80
2021/12/12 00:59:29;;;;;;;36.03;24.38;;;;;;;2.00;100.00;101935.94;1040901;28;20391;-80
2021/12/12 01:00:00;;;;;;;44.83;24.38;;;;;;;2.00;100.00;101939.41;1039612;28;20287;-80
2021/12/12 01:00:38;;;;;;;38.83;21.90;;;;;;;2.01;100.00;101937.63;1039512;28;20292;-80
2021/12/12 01:01:21;;;;;;;44.70;23.75;;;;;;;2.00;100.00;101942.03;1041065;28;20276;-80
2021/12/12 01:01:54;;;;;;;39.72;21.38;;;;;;;2.03;100.00;101941.78;1034565;28;20288;-80
2021/12/12 01:02:29;;;;;;;48.58;24.10;;;;;;;2.03;100.00;101936.50;1034601;28;20288;-81
2021/12/12 01:03:01;;;;;;;56.80;23.42;;;;;;;2.05;100.00;101945.09;1033300;28;20771;-79
2021/12/12 01:03:42;;;;;;;48.45;25.23;;;;;;;2.04;100.00;101932.09;1032404;28;20282;-80
2021/12/12 01:04:23;;;;;;;47.58;24.02;;;;;;;2.05;100.00;101931.13;1036479;28;20664;-80
2021/12/12 01:04:57;;;;;;;42.78;21.77;;;;;;;2.06;100.00;101931.00;1037338;28;20285;-80
2021/12/12 01:05:28;;;;;;;51.05;22.98;;;;;;;2.11;100.00;101927.94;1042668;28;20286;-79
2021/12/12 01:06:01;;;;;;;41.42;22.27;;;;;;;2.10;100.00;101926.28;1041470;28;20280;-80
2021/12/12 01:06:32;;;;;;;39.17;23.02;;;;;;;2.07;100.00;101934.44;1039975;28;20638;-80
2021/12/12 01:07:07;;;;;;;38.85;23.92;;;;;;;2.07;100.00;101929.19;1039466;28;21007;-79
2021/12/12 01:07:41;;;;;;;46.90;22.70;;;;;;;2.06;100.00;101930.16;1040534;28;20814;-80
2021/12/12 01:08:14;;;;;;;44.72;22.23;;;;;;;2.05;100.00;101923.25;1040872;28;20282;-81
2021/12/12 01:08:46;;;;;;;43.20;23.98;;;;;;;2.06;100.00;101925.72;1039795;28;20272;-80
2021/12/12 01:09:32;;;;;;;38.40;21.92;;;;;;;2.05;100.00;101928.50;1035282;28;20284;-80
2021/12/12 01:10:20;;;;;;;43.17;23.23;;;;;;;2.13;100.00;101921.59;1038426;28;20280;-79
2021/12/12 01:11:00;;;;;;;46.15;21.83;;;;;;;2.09;100.00;101930.72;1040261;28;20654;-80
2021/12/12 01:11:37;;;;;;;42.97;21.35;;;;;;;2.09;100.00;101929.88;1040419;28;20345;-76
2021/12/12 01:12:12;;;;;;;41.13;21.02;;;;;;;2.08;100.00;101922.97;1031206;28;20763;-76
2021/12/12 01:12:44;;;;;;;36.25;21.58;;;;;;;2.08;100.00;101929.06;1034106;28;20308;-76
2021/12/12 01:13:15;;;;;;;38.45;23.05;;;;;;;2.14;100.00;101927.69;1037306;28;20280;-76
2021/12/12 01:13:48;;;;;;;34.63;21.40;;;;;;;2.11;100.00;101933.22;1040265;28;20284;-77
2021/12/12 01:14:24;;;;;;;59.90;21.92;;;;;;;2.09;100.00;101920.22;1043505;28;20608;-76
2021/12/12 01:15:02;;;;;;;42.53;22.70;;;;;;;2.08;100.00;101934.31;1043677;28;20292;-76
2021/12/12 01:15:38;;;;;;;50.03;21.90;;;;;;;2.08;100.00;101931.69;1043743;28;20271;-76
2021/12/12 01:16:40;;;;;;;41.22;22.58;;;;;;;2.08;100.00;101930.84;1042769;28;20284;-78
2021/12/12 01:17:17;;;;;;;37.28;20.88;;;;;;;2.07;100.00;101930.03;1023721;28;20287;-77
2021/12/12 01:17:51;;;;;;;47.58;21.73;;;;;;;2.08;100.00;101938.75;1036464;28;20304;-76
2021/12/12 01:18:32;;;;;;;42.33;21.55;;;;;;;2.09;100.00;101932.50;1039744;28;20638;-76
2021/12/12 01:19:14;;;;;;;40.03;22.27;;;;;;;2.12;100.00;101934.88;1039576;28;20821;-76
2021/12/12 01:19:53;;;;;;;38.67;21.00;;;;;;;2.12;100.00;101935.69;1041807;28;20791;-76
2021/12/12 01:20:37;;;;;;;35.85;21.45;;;;;;;2.14;100.00;101925.06;1037733;28;20308;-76
2021/12/12 01:21:14;;;;;;;36.25;19.83;;;;;;;2.14;100.00;101928.50;1035285;28;20268;-76
2021/12/12 01:21:49;;;;;;;34.92;20.38;;;;;;;2.14;100.00;101925.88;1035198;28;20303;-76
2021/12/12 01:22:33;;;;;;;39.90;20.70;;;;;;;2.16;100.00;101926.56;1038689;28;20287;-76
2021/12/12 01:23:31;;;;;;;32.88;18.88;;;;;;;2.18;100.00;101927.28;1042907;28;20325;-76
2021/12/12 01:24:08;;;;;;;48.42;19.75;;;;;;;2.21;100.00;101928.81;1043403;28;20279;-76
2021/12/12 01:24:44;;;;;;;37.28;20.83;;;;;;;2.20;100.00;101931.59;1043413;28;20280;-77
2021/12/12 01:25:22;;;;;;;48.33;22.30;;;;;;;2.20;100.00;101934.22;1039429;28;20276;-76
2021/12/12 01:25:55;;;;;;;41.42;20.77;;;;;;;2.18;100.00;101932.53;1035261;28;20300;-76
2021/12/12 01:26:29;;;;;;;45.65;20.35;;;;;;;2.17;100.00;101933.50;1033615;28;20285;-76
2021/12/12 01:27:03;;;;;;;34.45;20.08;;;;;;;2.17;100.00;101932.66;1032676;28;20282;-76
2021/12/12 01:27:35;;;;;;;41.53;20.40;;;;;;;2.21;100.00;101931.47;1032429;28;20293;-76
2021/12/12 01:28:06;;;;;;;41.38;19.80;;;;;;;2.21;100.00;101939.34;1036739;28;20284;-76
2021/12/12 01:28:42;;;;;;;39.10;20.05;;;;;;;2.22;100.00;101929.66;1033892;28;20281;-76
2021/12/12 01:29:14;;;;;;;36.00;20.52;;;;;;;2.21;100.00;101930.63;1036243;28;20281;-77
2021/12/12 01:29:49;;;;;;;43.75;21.58;;;;;;;2.24;100.00;101938.25;1039475;28;20294;-77
2021/12/12 01:30:21;;;;;;;42.60;21.63;;;;;;;2.25;100.00;101934.63;1037015;28;20296;-76
2021/12/12 01:30:54;;;;;;;42.28;21.05;;;;;;;2.24;100.00;101935.59;1030352;28;20282;-77
2021/12/12 01:31:30;;;;;;;39.42;21.90;;;;;;;2.25;100.00;101937.28;1034995;28;20506;-77
2021/12/12 01:32:11;;;;;;;37.88;20.40;;;;;;;2.28;100.00;101935.19;1035195;28;20276;-76
2021/12/12 01:32:44;;;;;;;41.50;20.13;;;;;;;2.26;100.00;101933.69;1040414;28;20277;-76
2021/12/12 01:33:32;;;;;;;48.08;22.45;;;;;;;2.23;100.00;101937.41;1039306;28;20291;-76
2021/12/12 01:34:12;;;;;;;36.80;20.92;;;;;;;2.23;100.00;101936.56;1041230;28;20276;-76
2021/12/12 01:34:44;;;;;;;49.05;21.65;;;;;;;2.27;100.00;101938.78;1045017;28;20275;-78
2021/12/12 01:35:18;;;;;;;47.47;22.27;;;;;;;2.30;100.00;101937.69;1043384;28;20404;-76
2021/12/12 01:35:51;;;;;;;38.22;18.65;;;;;;;2.31;100.00;101934.94;1043242;28;20283;-76
2021/12/12 01:36:26;;;;;;;33.30;19.92;;;;;;;2.30;100.00;101933.25;1039690;28;20276;-76
2021/12/12 01:38:56;;;;;;;40.08;19.45;;;;;;;2.33;100.00;101943.50;1039266;28;20310;-76
2021/12/12 01:39:34;;;;;;;32.03;17.73;;;;;;;2.33;100.00;101937.41;1039278;28;20280;-76
2021/12/12 01:40:09;;;;;;;31.15;18.08;;;;;;;2.31;100.00;101940.19;1039792;28;20290;-76
2021/12/12 01:40:43;;;;;;;42.80;19.45;;;;;;;2.32;100.00;101944.47;1043512;28;20279;-76
2021/12/12 01:41:15;;;;;;;43.30;19.30;;;;;;;2.32;100.00;101941.00;1043568;28;20279;-76
2021/12/12 01:41:57;;;;;;;41.75;18.52;;;;;;;2.29;100.00;101936.88;1041279;28;20277;-76
2021/12/12 01:42:37;;;;;;;34.22;18.40;;;;;;;2.31;100.00;101944.63;1041666;28;20766;-76
2021/12/12 01:43:20;;;;;;;42.70;19.05;;;;;;;2.33;100.00;101942.69;1041056;28;20280;-76
2021/12/12 01:43:56;;;;;;;31.92;17.95;;;;;;;2.30;100.00;101943.78;1043367;28;20319;-76
2021/12/12 01:44:33;;;;;;;35.58;18.88;;;;;;;2.31;100.00;101940.19;1039279;28;20288;-76
2021/12/12 01:45:04;;;;;;;36.38;18.75;;;;;;;2.31;100.00;101941.97;1043024;28;20271;-76
2021/12/12 01:45:48;;;;;;;41.03;19.23;;;;;;;2.31;100.00;101949.88;1045037;28;20768;-76
2021/12/12 01:46:23;;;;;;;33.95;18.30;;;;;;;2.32;100.00;101946.28;1043692;28;20283;-76
2021/12/12 01:47:20;;;;;;;35.72;18.45;;;;;;;2.32;100.00;101941.00;1042173;28;20283;-76
2021/12/12 01:48:08;;;;;;;42.65;16.98;;;;;;;2.36;100.00;101943.22;1039736;28;20320;-76
2021/12/12 01:48:50;;;;;;;37.40;17.58;;;;;;;2.34;100.00;101939.09;1041089;28;20287;-76
2021/12/12 01:49:24;;;;;;;41.97;18.20;;;;;;;2.34;100.00;101934.66;1043133;28;20287;-76
2021/12/12 01:49:58;;;;;;;42.30;18.65;;;;;;;2.36;100.00;101937.16;1047719;28;20653;-76
2021/12/12 01:50:40;;;;;;;37.15;19.15;;;;;;;2.35;100.00;101940.75;1042286;28;20283;-76
2021/12/12 01:51:13;;;;;;;36.72;18.92;;;;;;;2.40;100.00;101938.53;1043547;28;20276;-76
2021/12/12 01:51:45;;;;;;;35.80;18.33;;;;;;;2.40;100.00;101938.53;1039488;28;20299;-76
2021/12/12 01:52:21;;;;;;;34.08;17.73;;;;;;;2.38;100.00;101936.03;1041530;28;20276;-77
2021/12/12 01:52:54;;;;;;;38.90;18.95;;;;;;;2.38;100.00;101929.94;1039143;28;20296;-76
2021/12/12 01:53:29;;;;;;;33.35;18.45;;;;;;;2.40;100.00;101933.28;1042180;28;20272;-76
2021/12/12 01:54:03;;;;;;;36.42;20.05;;;;;;;2.39;100.00;101940.34;1043718;28;20281;-76
2021/12/12 01:54:45;;;;;;;37.60;19.92;;;;;;;2.39;100.00;101931.59;1032897;28;20280;-76
2021/12/12 01:55:24;;;;;;;39.85;21.50;;;;;;;2.38;100.00;101935.22;1034006;28;20281;-76
2021/12/12 01:56:04;;;;;;;43.97;22.60;;;;;;;2.45;100.00;101938.94;1034752;28;20692;-76
2021/12/12 01:56:43;;;;;;;39.17;21.60;;;;;;;2.40;100.00;101935.91;1033853;28;20317;-76
2021/12/12 01:57:21;;;;;;;50.40;22.73;;;;;;;2.39;100.00;101935.06;1039131;28;20041;-75
2021/12/12 01:57:56;;;;;;;45.08;22.60;;;;;;;2.41;100.00;101934.94;1043335;28;20651;-76
2021/12/12 01:58:30;;;;;;;36.28;22.50;;;;;;;2.40;100.00;101938.53;1042336;28;20283;-76
2021/12/12 01:59:04;;;;;;;36.78;21.83;;;;;;;2.42;100.00;101939.22;1043213;28;20283;-76
2021/12/12 01:59:37;;;;;;;37.80;21.27;;;;;;;2.41;100.00;101934.94;1039228;28;20781;-76
2021/12/12 02:00:17;;;;;;;46.13;22.10;;;;;;;2.40;100.00;101928.84;1037992;28;20320;-77
2021/12/12 02:00:55;;;;;;;42.33;20.85;;;;;;;2.44;100.00;101934.66;1039553;28;20714;-76
2021/12/12 02:01:56;;;;;;;39.00;22.40;;;;;;;2.46;100.00;101937.97;1041989;28;20196;-76
2021/12/12 02:02:31;;;;;;;43.10;21.55;;;;;;;2.45;100.00;101931.06;1044203;28;20681;-76
2021/12/12 02:03:04;;;;;;;32.88;20.70;;;;;;;2.46;100.00;101932.72;1048119;28;20289;-76
2021/12/12 02:03:40;;;;;;;43.22;21.30;;;;;;;2.43;100.00;101933.00;1047879;28;20634;-76
2021/12/12 02:04:16;;;;;;;37.08;20.15;;;;;;;2.42;100.00;101936.59;1042406;28;20280;-76
2021/12/12 02:04:51;;;;;;;47.17;24.85;;;;;;;2.43;100.00;101935.63;1039025;28;20285;-76
2021/12/12 02:05:24;;;;;;;33.53;21.17;;;;;;;2.41;100.00;101932.31;1037680;28;20327;-76
2021/12/12 02:05:57;;;;;;;37.03;21.85;;;;;;;2.42;100.00;101933.97;1045725;28;20283;-79
2021/12/12 02:06:29;;;;;;;45.83;23.08;;;;;;;2.40;100.00;101935.91;1044800;28;20271;-76
2021/12/12 02:07:02;;;;;;;31.92;21.67;;;;;;;2.43;100.00;101939.09;1039275;28;20626;-76
2021/12/12 02:07:43;;;;;;;32.55;22.67;;;;;;;2.45;100.00;101936.31;1040315;28;20272;-76
2021/12/12 02:08:17;;;;;;;47.22;21.10;;;;;;;2.45;100.00;101931.06;1041334;28;20792;-76
2021/12/12 02:08:51;;;;;;;50.85;20.20;;;;;;;2.49;100.00;101937.72;1041948;28;20419;-77
2021/12/12 02:09:24;;;;;;;38.85;22.40;;;;;;;2.47;100.00;101931.78;1037458;28;20292;-76
2021/12/12 02:10:00;;;;;;;40.65;21.75;;;;;;;2.54;100.00;101934.69;1036353;28;20293;-77
2021/12/12 02:10:36;;;;;;;40.38;22.05;;;;;;;2.51;100.00;101933.16;1040316;28;20276;-76
2021/12/12 02:11:15;;;;;;;34.78;21.27;;;;;;;2.52;100.00;101932.19;1041030;28;20271;-76
2021/12/12 02:11:48;;;;;;;41.30;21.95;;;;;;;2.50;100.00;101928.88;1041722;28;20287;-76
2021/12/12 02:12:22;;;;;;;35.55;21.27;;;;;;;2.51;100.00;101935.81;1043876;28;20761;-78
2021/12/12 02:12:54;;;;;;;51.47;21.52;;;;;;;2.50;100.00;101928.88;1046576;28;20283;-76
2021/12/12 02:13:28;;;;;;;44.28;21.77;;;;;;;2.49;100.00;101932.47;1047271;28;20279;-76
2021/12/12 02:14:08;;;;;;;50.10;22.10;;;;;;;2.54;100.00;101930.25;1043797;28;20280;-77
2021/12/12 02:14:41;;;;;;;45.55;22.13;;;;;;;2.51;100.00;101925.28;1041414;28;20276;-77
2021/12/12 02:15:14;;;;;;;43.63;22.65;;;;;;;2.51;100.00;101930.53;1039116;28;20451;-77
2021/12/12 02:15:48;;;;;;;43.95;21.73;;;;;;;2.55;100.00;101921.41;1041781;28;20276;-77
2021/12/12 02:16:21;;;;;;;38.10;20.52;;;;;;;2.56;100.00;101927.50;1038532;28;20281;-77
2021/12/12 02:16:59;;;;;;;42.72;22.73;;;;;;;2.52;100.00;101921.69;1040368;28;20681;-77
2021/12/12 02:17:37;;;;;;;39.17;22.58;;;;;;;2.52;100.00;101924.31;1039162;28;20302;-77
2021/12/12 02:18:13;;;;;;;42.22;21.38;;;;;;;2.49;100.00;101916.69;1041743;28;20757;-77
2021/12/12 02:18:48;;;;;;;37.10;20.27;;;;;;;2.48;100.00;101925.56;1045948;28;20282;-77
2021/12/12 02:19:29;;;;;;;41.78;20.75;;;;;;;2.53;100.00;101923.34;1046031;28;20286;-77
2021/12/12 02:20:28;;;;;;;39.25;21.48;;;;;;;2.51;100.00;101924.44;1047470;28;20278;-77
2021/12/12 02:21:20;;;;;;;31.42;19.30;;;;;;;2.53;100.00;101920.72;1045092;28;20052;-77
2021/12/12 02:22:19;;;;;;;36.55;17.67;;;;;;;2.49;100.00;101921.97;1045867;28;20283;-77
2021/12/12 02:35:13;;;;;;;35.08;15.73;;;;;;;2.54;100.00;101927.63;1035192;28;20276;-77
2021/12/12 02:35:47;;;;;;;33.97;15.70;;;;;;;2.52;100.00;101926.09;1037079;28;20268;-78
2021/12/12 02:36:19;;;;;;;32.13;18.02;;;;;;;2.52;100.00;101926.09;1043530;28;20287;-78
2021/12/12 02:36:51;;;;;;;46.20;16.25;;;;;;;2.50;100.00;101921.00;1047300;28;20297;-78
2021/12/12 02:37:26;;;;;;;38.88;15.90;;;;;;;2.59;100.00;101928.03;1046046;28;20863;-76
2021/12/12 02:38:00;;;;;;;38.33;17.60;;;;;;;2.56;100.00;101923.06;1044306;28;20378;-78
2021/12/12 02:38:32;;;;;;;41.55;16.88;;;;;;;2.57;100.00;101927.34;1043460;28;20279;-78
2021/12/12 02:39:15;;;;;;;35.90;16.52;;;;;;;2.56;100.00;101928.31;1044684;28;20487;-78
2021/12/12 02:39:47;;;;;;;30.45;15.93;;;;;;;2.55;100.00;101931.91;1043189;28;20776;-78
2021/12/12 02:40:25;;;;;;;46.58;17.13;;;;;;;2.58;100.00;101926.38;1043347;28;22068;-78
2021/12/12 02:41:00;;;;;;;35.20;18.15;;;;;;;2.60;100.00;101932.34;1046417;28;20772;-78
2021/12/12 02:41:32;;;;;;;32.75;15.77;;;;;;;2.57;100.00;101923.91;1044289;28;20285;-77
2021/12/12 02:42:06;;;;;;;32.58;16.75;;;;;;;2.61;100.00;101920.84;1042627;28;20725;-76
2021/12/12 02:42:39;;;;;;;42.75;16.75;;;;;;;2.59;100.00;101922.78;1039073;28;20287;-76
2021/12/12 02:43:13;;;;;;;37.35;16.63;;;;;;;2.62;100.00;101922.50;1040215;28;20370;-76
2021/12/12 02:43:51;;;;;;;29.35;16.58;;;;;;;2.60;100.00;101924.44;1042605;28;20300;-76
2021/12/12 02:44:28;;;;;;;37.50;15.63;;;;;;;2.60;100.00;101919.19;1045266;28;20298;-76
2021/12/12 02:45:02;;;;;;;40.35;15.50;;;;;;;2.58;100.00;101921.13;1043576;28;20290;-76
2021/12/12 02:45:36;;;;;;;35.05;15.50;;;;;;;2.57;100.00;101919.47;1042791;28;20410;-76
2021/12/12 02:46:07;;;;;;;29.10;14.30;;;;;;;2.61;100.00;101915.59;1040697;28;20375;-76
2021/12/12 02:46:41;;;;;;;38.08;16.67;;;;;;;2.60;100.00;101919.19;1044956;28;20283;-76
2021/12/12 02:47:18;;;;;;;32.35;15.23;;;;;;;2.59;100.00;101920.16;1047461;28;20282;-76
2021/12/12 02:47:57;;;;;;;28.90;15.32;;;;;;;2.59;100.00;101917.53;1047038;28;20286;-76
2021/12/12 02:48:32;;;;;;;32.90;13.93;;;;;;;2.62;100.00;101914.63;1047543;28;20790;-76
2021/12/12 02:49:23;;;;;;;32.20;17.02;;;;;;;2.65;100.00;101922.22;1047673;28;20283;-76
2021/12/12 02:50:07;;;;;;;39.08;18.45;;;;;;;2.60;100.00;101916.56;1048441;28;20301;-78
2021/12/12 02:50:42;;;;;;;28.58;14.30;;;;;;;2.61;100.00;101920.84;1039108;28;20050;-78
2021/12/12 02:51:16;;;;;;;30.67;14.52;;;;;;;2.64;100.00;101917.94;1039222;28;20806;-78
2021/12/12 02:51:48;;;;;;;35.97;15.52;;;;;;;2.66;100.00;101921.25;1039328;28;20287;-78
2021/12/12 02:52:24;;;;;;;31.30;15.07;;;;;;;2.63;100.00;101921.53;1039391;28;20283;-78
2021/12/12 02:53:15;;;;;;;34.75;14.93;;;;;;;2.63;100.00;101918.91;1043547;28;20291;-78
2021/12/12 02:53:52;;;;;;;25.95;14.07;;;;;;;2.61;100.00;101920.84;1043176;28;20279;-76
2021/12/12 02:54:24;;;;;;;33.35;14.23;;;;;;;2.63;100.00;101918.91;1043504;28;20653;-76
2021/12/12 02:55:18;;;;;;;32.85;15.35;;;;;;;2.63;100.00;101918.91;1039132;28;20292;-76
2021/12/12 02:55:54;;;;;;;28.90;15.20;;;;;;;2.67;100.00;101915.03;1037981;28;20280;-78
2021/12/12 02:56:33;;;;;;;26.35;15.23;;;;;;;2.66;100.00;101918.63;1039032;28;20288;-78
2021/12/12 02:57:05;;;;;;;43.53;15.55;;;;;;;2.65;100.00;101916.97;1038978;28;20315;-78
2021/12/12 02:57:36;;;;;;;31.05;15.00;;;;;;;2.64;100.00;101928.47;1040807;28;20810;-78
2021/12/12 02:58:13;;;;;;;27.70;15.48;;;;;;;2.64;100.00;101923.19;1045168;28;20633;-76
2021/12/12 02:58:46;;;;;;;39.47;15.93;;;;;;;2.64;100.00;101917.09;1044902;28;20294;-78